Time;durP1;ratioP1;P1;durP2;ratioP2;P2;SDS_P1;SDS_P2;PMS_P1;PMS_P2;Temp;Humidity;BMP_temperature;BMP_pressure;BME280_temperature;BME280_humidity;BME280_pressure;Samples;Min_cycle;Max_cycle;Signal;HPM_P1;HPM_P2
2023/11/19 00:00:29;;;;;;;4.97;4.57;;;13.30;99.90;;;;;;5081879;28;20079;-44
2023/11/19 00:02:55;;;;;;;4.45;4.05;;;13.30;99.90;;;;;;5080891;28;20489;-44
2023/11/19 00:05:20;;;;;;;5.05;4.43;;;13.30;99.90;;;;;;5081278;28;20031;-44
2023/11/19 00:07:46;;;;;;;4.53;4.22;;;13.30;99.90;;;;;;5081898;28;20521;-44
2023/11/19 00:10:13;;;;;;;5.22;4.75;;;13.30;99.90;;;;;;5081705;28;20040;-44
2023/11/19 00:12:41;;;;;;;5.03;4.53;;;13.40;99.90;;;;;;5081688;28;20525;-44
2023/11/19 00:15:11;;;;;;;5.00;4.50;;;13.40;99.90;;;;;;5081746;28;20024;-45
2023/11/19 00:17:40;;;;;;;5.20;4.80;;;13.40;99.90;;;;;;5081644;28;20028;-45
2023/11/19 00:20:09;;;;;;;5.05;4.60;;;13.40;99.90;;;;;;5081702;28;20024;-45
2023/11/19 00:22:34;;;;;;;5.57;5.05;;;13.40;99.90;;;;;;5081685;28;20016;-44
2023/11/19 00:25:03;;;;;;;4.35;4.05;;;13.40;99.90;;;;;;5081731;28;20079;-44
2023/11/19 00:27:29;;;;;;;4.72;4.30;;;13.40;99.90;;;;;;5081395;28;20024;-44
2023/11/19 00:29:54;;;;;;;5.43;4.28;;;13.50;99.90;;;;;;5080849;28;20031;-44
2023/11/19 00:32:20;;;;;;;5.00;4.50;;;13.50;99.90;;;;;;5080768;28;20024;-44
2023/11/19 00:34:47;;;;;;;4.80;4.40;;;13.50;99.90;;;;;;5081966;28;20036;-43
2023/11/19 00:37:13;;;;;;;4.07;3.78;;;13.50;99.90;;;;;;5081279;28;20101;-43
2023/11/19 00:39:39;;;;;;;5.18;3.88;;;13.50;99.90;;;;;;5081347;28;20027;-43
2023/11/19 00:42:05;;;;;;;6.22;3.90;;;13.50;99.90;;;;;;5081008;28;20024;-43
2023/11/19 00:44:30;;;;;;;4.57;3.30;;;13.50;99.90;;;;;;5081822;28;20040;-43
2023/11/19 00:46:56;;;;;;;4.55;3.78;;;13.50;99.90;;;;;;5081276;28;20420;-43
2023/11/19 00:49:21;;;;;;;10.30;4.50;;;13.50;99.90;;;;;;5077716;28;20204;-44
2023/11/19 00:51:50;;;;;;;4.60;3.97;;;13.50;99.90;;;;;;5061564;28;20024;-43
2023/11/19 00:54:16;;;;;;;6.63;4.03;;;13.60;99.90;;;;;;5071628;28;20144;-43
2023/11/19 00:56:41;;;;;;;5.10;3.30;;;13.60;99.90;;;;;;5060781;28;20107;-43
2023/11/19 00:59:07;;;;;;;6.20;3.50;;;13.60;99.90;;;;;;5071404;28;20039;-45
2023/11/19 01:01:33;;;;;;;5.45;3.00;;;13.60;99.90;;;;;;5061995;28;20028;-43
2023/11/19 01:03:59;;;;;;;6.65;3.00;;;13.70;99.90;;;;;;5069234;28;20142;-43
2023/11/19 01:06:31;;;;;;;7.97;2.70;;;13.70;99.90;;;;;;5064835;28;20025;-46
2023/11/19 01:08:57;;;;;;;6.40;2.40;;;13.70;99.90;;;;;;5066635;28;20043;-45
2023/11/19 01:11:23;;;;;;;6.07;2.55;;;13.70;99.90;;;;;;5077179;28;20032;-45
2023/11/19 01:13:52;;;;;;;7.90;2.92;;;13.70;99.90;;;;;;5077592;28;20016;-45
2023/11/19 01:16:18;;;;;;;6.03;2.47;;;13.70;99.90;;;;;;5072065;28;20604;-45
2023/11/19 01:18:46;;;;;;;9.38;3.40;;;13.70;99.90;;;;;;5069849;28;20479;-44
2023/11/19 01:21:12;;;;;;;8.48;3.00;;;13.70;99.90;;;;;;5071102;28;20047;-45
2023/11/19 01:23:37;;;;;;;8.27;3.03;;;13.70;99.90;;;;;;5062295;28;20024;-44
2023/11/19 01:26:05;;;;;;;13.15;3.63;;;13.70;99.90;;;;;;5072234;28;20129;-45
2023/11/19 01:28:30;;;;;;;8.30;3.25;;;13.70;99.90;;;;;;5061284;28;20036;-43
2023/11/19 01:30:56;;;;;;;10.27;3.67;;;13.70;99.90;;;;;;5072343;28;20024;-43
2023/11/19 01:33:22;;;;;;;14.38;3.60;;;13.70;99.90;;;;;;5060787;28;20021;-45
2023/11/19 01:35:47;;;;;;;12.40;3.05;;;13.80;99.90;;;;;;5072782;28;20032;-44
2023/11/19 01:38:13;;;;;;;6.40;2.90;;;13.80;99.90;;;;;;5061135;28;20139;-44
2023/11/19 01:40:38;;;;;;;10.77;3.58;;;13.80;99.90;;;;;;5073409;28;20138;-43
2023/11/19 01:43:04;;;;;;;12.75;3.63;;;13.80;99.90;;;;;;5060115;28;20495;-44
2023/11/19 01:45:30;;;;;;;11.45;3.17;;;13.80;99.90;;;;;;5070065;28;20464;-43
2023/11/19 01:48:03;;;;;;;10.68;2.80;;;13.80;99.90;;;;;;5063731;28;20483;-44
2023/11/19 01:50:33;;;;;;;8.57;2.85;;;13.80;99.90;;;;;;5055579;28;20299;-44
2023/11/19 01:52:59;;;;;;;9.13;3.10;;;13.90;99.90;;;;;;5060764;28;20070;-44
2023/11/19 01:55:28;;;;;;;10.75;2.88;;;13.90;99.90;;;;;;5060334;28;20025;-44
2023/11/19 01:57:55;;;;;;;9.50;2.70;;;13.90;99.90;;;;;;5060520;28;20111;-44
2023/11/19 02:00:21;;;;;;;6.95;2.33;;;13.90;99.90;;;;;;5060652;28;20051;-43
2023/11/19 02:02:52;;;;;;;5.63;2.25;;;13.80;99.90;;;;;;5060646;28;20029;-44
2023/11/19 02:05:17;;;;;;;10.68;2.63;;;13.80;99.90;;;;;;5059037;28;20058;-44
2023/11/19 02:07:43;;;;;;;10.80;3.00;;;13.80;99.90;;;;;;5060578;28;20837;-44
2023/11/19 02:10:14;;;;;;;7.03;2.47;;;13.80;99.90;;;;;;5060405;28;20549;-44
2023/11/19 02:12:43;;;;;;;8.82;3.00;;;13.80;99.90;;;;;;5060361;28;20104;-44
2023/11/19 02:15:11;;;;;;;10.13;2.50;;;13.80;99.90;;;;;;5060444;28;20025;-44
2023/11/19 02:17:37;;;;;;;10.95;2.83;;;13.80;99.90;;;;;;5060128;28;20017;-44
2023/11/19 02:20:11;;;;;;;10.95;2.97;;;13.80;99.90;;;;;;5059819;28;20033;-43
2023/11/19 02:22:37;;;;;;;10.82;3.35;;;13.80;99.90;;;;;;5059004;28;20025;-44
2023/11/19 02:25:22;;;;;;;15.75;2.97;;;13.80;99.90;;;;;;5059436;28;20057;-44
2023/11/19 02:27:55;;;;;;;12.43;3.20;;;13.80;99.90;;;;;;5062112;28;20032;-43
2023/11/19 02:30:26;;;;;;;14.75;3.17;;;13.80;99.90;;;;;;5064267;28;20446;-43
2023/11/19 02:32:53;;;;;;;17.35;3.80;;;13.80;99.90;;;;;;5063348;28;20025;-43
2023/11/19 02:35:19;;;;;;;13.38;3.08;;;13.80;99.90;;;;;;5064098;28;20682;-44
2023/11/19 02:37:45;;;;;;;9.52;2.55;;;13.80;99.90;;;;;;5063878;28;20025;-43
2023/11/19 02:40:11;;;;;;;14.30;3.03;;;13.80;99.90;;;;;;5062888;28;20024;-43
2023/11/19 02:42:36;;;;;;;13.52;3.25;;;13.70;99.90;;;;;;5063351;28;20028;-44
2023/11/19 02:45:06;;;;;;;13.98;3.22;;;13.70;99.90;;;;;;5064099;28;20025;-44
2023/11/19 02:47:33;;;;;;;19.52;3.85;;;13.70;99.90;;;;;;5063197;28;20024;-43
2023/11/19 02:49:59;;;;;;;14.80;3.90;;;13.70;99.90;;;;;;5079498;28;20117;-43
2023/11/19 02:52:24;;;;;;;16.92;3.95;;;13.60;99.90;;;;;;5076843;28;20460;-43
2023/11/19 02:54:51;;;;;;;16.00;3.13;;;13.70;99.90;;;;;;5077617;28;20449;-44
2023/11/19 02:57:19;;;;;;;17.92;3.83;;;13.70;99.90;;;;;;5079287;28;20069;-44
2023/11/19 02:59:44;;;;;;;16.13;4.53;;;13.70;99.90;;;;;;5075890;28;20031;-43
2023/11/19 03:02:11;;;;;;;20.63;4.32;;;13.60;99.90;;;;;;5081065;28;20383;-43
2023/11/19 03:04:39;;;;;;;21.05;4.45;;;13.60;99.90;;;;;;5073751;28;20020;-43
2023/11/19 03:07:05;;;;;;;15.88;3.53;;;13.60;99.90;;;;;;5081186;28;20465;-44
2023/11/19 03:09:30;;;;;;;17.10;4.00;;;13.60;99.90;;;;;;5072227;28;20032;-44
2023/11/19 03:11:56;;;;;;;17.35;4.72;;;13.60;99.90;;;;;;5082618;28;20064;-44
2023/11/19 03:14:34;;;;;;;15.02;3.60;;;13.60;99.90;;;;;;5071140;28;20020;-44
2023/11/19 03:16:59;;;;;;;25.38;3.72;;;13.50;99.90;;;;;;5083474;28;20515;-44
2023/11/19 03:19:26;;;;;;;19.30;4.03;;;13.50;99.90;;;;;;5071375;28;20020;-44
2023/11/19 03:21:52;;;;;;;19.20;3.88;;;13.50;99.90;;;;;;5083452;28;20028;-45
2023/11/19 03:24:17;;;;;;;17.45;4.03;;;13.50;99.90;;;;;;5069777;28;20035;-44
2023/11/19 03:26:50;;;;;;;21.55;4.03;;;13.50;99.90;;;;;;5083967;28;20097;-46
2023/11/19 03:29:15;;;;;;;24.52;5.05;;;13.40;99.90;;;;;;5069865;28;20044;-43
2023/11/19 03:31:47;;;;;;;19.50;4.32;;;13.40;99.90;;;;;;5082645;28;20031;-43
2023/11/19 03:34:12;;;;;;;22.38;4.18;;;13.40;99.90;;;;;;5072346;28;20444;-44
2023/11/19 03:36:38;;;;;;;21.67;4.55;;;13.30;99.90;;;;;;5079762;28;20523;-44
2023/11/19 03:39:04;;;;;;;26.63;5.20;;;13.30;99.90;;;;;;5075124;28;20024;-43
2023/11/19 03:41:29;;;;;;;30.35;5.78;;;13.30;99.90;;;;;;5077898;28;20020;-43
2023/11/19 03:43:56;;;;;;;21.60;4.90;;;13.20;99.90;;;;;;5077506;28;20051;-45
2023/11/19 03:46:22;;;;;;;22.40;5.13;;;13.20;99.90;;;;;;5075458;28;20063;-45
2023/11/19 03:48:49;;;;;;;21.63;4.90;;;13.20;99.90;;;;;;5080862;28;20155;-43
2023/11/19 03:51:34;;;;;;;26.42;5.13;;;13.20;99.90;;;;;;5071307;28;20028;-44
2023/11/19 03:54:01;;;;;;;24.20;4.80;;;13.10;99.90;;;;;;5078815;28;20023;-44
2023/11/19 03:56:27;;;;;;;21.48;5.50;;;13.00;99.90;;;;;;5072369;28;20077;-44
2023/11/19 03:58:52;;;;;;;24.23;5.20;;;13.00;99.90;;;;;;5081215;28;20356;-44
2023/11/19 04:01:18;;;;;;;20.20;4.72;;;12.90;99.90;;;;;;5070796;28;20785;-44
2023/11/19 04:03:44;;;;;;;22.00;4.60;;;12.90;99.90;;;;;;5080947;28;20526;-44
2023/11/19 04:06:09;;;;;;;24.88;5.20;;;12.80;99.90;;;;;;5057978;28;20028;-44
2023/11/19 04:08:35;;;;;;;22.35;4.93;;;12.80;99.90;;;;;;5061839;28;20031;-44
2023/11/19 04:11:02;;;;;;;15.18;3.55;;;12.70;99.90;;;;;;5057538;28;20032;-45
2023/11/19 04:13:28;;;;;;;19.60;5.68;;;12.70;99.90;;;;;;5080714;28;20058;-45
2023/11/19 04:15:53;;;;;;;21.58;4.13;;;12.60;99.90;;;;;;5060459;28;20025;-44
2023/11/19 04:18:19;;;;;;;15.20;3.70;;;12.60;99.90;;;;;;5052378;28;20025;-44
2023/11/19 04:20:45;;;;;;;23.92;4.55;;;12.60;99.90;;;;;;5053612;28;20039;-43
2023/11/19 04:23:11;;;;;;;18.67;4.25;;;12.60;99.90;;;;;;5076567;28;20073;-45
2023/11/19 04:25:37;;;;;;;25.48;4.53;;;12.50;99.90;;;;;;5074581;28;20038;-44
2023/11/19 04:28:02;;;;;;;26.13;4.72;;;12.50;99.90;;;;;;5077781;28;20416;-43
2023/11/19 04:30:28;;;;;;;26.80;5.68;;;12.50;99.90;;;;;;5077448;28;20099;-44
2023/11/19 04:32:54;;;;;;;26.23;4.95;;;12.50;99.90;;;;;;5073755;28;20035;-44
2023/11/19 04:35:19;;;;;;;28.77;5.50;;;12.40;99.90;;;;;;5079589;28;20634;-44
2023/11/19 04:37:45;;;;;;;24.08;4.75;;;12.40;99.90;;;;;;5071674;28;20031;-44
2023/11/19 04:40:11;;;;;;;21.80;5.22;;;12.40;99.90;;;;;;5079802;28;20025;-44
2023/11/19 04:42:40;;;;;;;21.83;4.50;;;12.40;99.90;;;;;;5071758;28;20041;-43
2023/11/19 04:45:07;;;;;;;28.48;4.60;;;12.40;99.90;;;;;;5081210;28;20030;-44
2023/11/19 04:47:34;;;;;;;27.13;5.38;;;12.30;99.90;;;;;;5069997;28;20039;-44
2023/11/19 04:49:59;;;;;;;21.58;4.32;;;12.30;99.90;;;;;;5081559;28;20135;-44
2023/11/19 04:52:25;;;;;;;25.33;4.78;;;12.30;99.90;;;;;;5068239;28;20739;-44
2023/11/19 04:54:51;;;;;;;23.40;5.03;;;12.30;99.90;;;;;;5082524;28;20031;-44
2023/11/19 04:57:17;;;;;;;22.42;5.00;;;12.30;99.90;;;;;;5068563;28;20028;-47
2023/11/19 04:59:45;;;;;;;22.55;4.70;;;12.30;99.90;;;;;;5041152;28;20028;-44
2023/11/19 05:02:11;;;;;;;23.35;4.32;;;12.30;99.90;;;;;;5065763;28;20027;-44
2023/11/19 05:04:39;;;;;;;25.27;4.45;;;12.20;99.90;;;;;;5063788;28;20025;-45
2023/11/19 05:07:05;;;;;;;29.25;4.93;;;12.30;99.90;;;;;;5068916;28;20112;-45
2023/11/19 05:09:31;;;;;;;28.23;5.65;;;12.20;99.90;;;;;;5065067;28;20833;-44
2023/11/19 05:11:57;;;;;;;24.92;4.45;;;12.20;99.90;;;;;;5066024;28;20016;-44
2023/11/19 05:14:24;;;;;;;22.23;4.07;;;12.20;99.90;;;;;;5067660;28;20028;-45
2023/11/19 05:16:49;;;;;;;25.45;5.43;;;12.20;99.90;;;;;;5063989;28;20658;-46
2023/11/19 05:19:15;;;;;;;28.77;5.07;;;12.30;99.90;;;;;;5070107;28;20485;-45
2023/11/19 05:21:44;;;;;;;25.75;5.85;;;12.20;99.90;;;;;;5062061;28;20147;-46
2023/11/19 05:24:09;;;;;;;20.75;5.07;;;12.20;99.90;;;;;;5069921;28;20068;-43
2023/11/19 05:26:35;;;;;;;27.83;5.57;;;12.30;99.90;;;;;;5061643;28;20111;-43
2023/11/19 05:29:01;;;;;;;24.33;5.32;;;12.30;99.90;;;;;;5070839;28;20127;-44
2023/11/19 05:31:26;;;;;;;22.88;4.95;;;12.30;99.90;;;;;;5060383;28;20016;-44
2023/11/19 05:33:55;;;;;;;20.42;4.38;;;12.30;99.90;;;;;;5073811;28;20159;-44
2023/11/19 05:36:21;;;;;;;31.10;6.32;;;12.40;99.90;;;;;;5059933;28;20027;-45
2023/11/19 05:38:46;;;;;;;24.42;4.70;;;12.40;99.90;;;;;;5073798;28;20024;-45
2023/11/19 05:41:12;;;;;;;33.30;4.97;;;12.50;99.90;;;;;;5060970;28;20024;-45
2023/11/19 05:43:40;;;;;;;25.88;4.97;;;12.50;99.90;;;;;;5071109;28;20342;-45
2023/11/19 05:46:06;;;;;;;27.67;4.65;;;12.50;99.90;;;;;;5061721;28;20021;-45
2023/11/19 05:48:35;;;;;;;24.27;4.03;;;12.50;99.90;;;;;;5068926;28;20098;-45
2023/11/19 05:51:00;;;;;;;20.77;4.30;;;12.50;99.90;;;;;;5063906;28;20073;-45
2023/11/19 05:53:31;;;;;;;24.25;5.43;;;12.50;99.90;;;;;;5066685;28;20119;-46
2023/11/19 05:55:57;;;;;;;29.27;5.22;;;12.50;99.90;;;;;;5065111;28;20733;-44
2023/11/19 05:58:28;;;;;;;27.35;5.00;;;12.50;99.90;;;;;;5064868;28;20017;-44
2023/11/19 06:00:55;;;;;;;24.73;5.40;;;12.40;99.90;;;;;;5067535;28;20567;-44
2023/11/19 06:03:21;;;;;;;25.38;5.65;;;12.40;99.90;;;;;;5066473;28;20044;-37
2023/11/19 06:05:48;;;;;;;33.28;6.93;;;12.40;99.90;;;;;;5074370;28;20020;-37
2023/11/19 06:08:14;;;;;;;28.83;5.78;;;12.40;99.90;;;;;;5065198;28;20056;-36
2023/11/19 06:10:46;;;;;;;26.88;5.32;;;12.40;99.90;;;;;;5075418;28;20033;-37
2023/11/19 06:13:32;;;;;;;24.67;4.83;;;12.40;99.90;;;;;;5064533;28;20020;-36
2023/11/19 06:15:57;;;;;;;30.40;5.30;;;12.40;99.90;;;;;;5060903;28;20747;-37
2023/11/19 06:18:23;;;;;;;31.02;6.25;;;12.40;99.90;;;;;;5082799;28;20467;-37
2023/11/19 06:20:49;;;;;;;28.58;6.35;;;12.40;99.90;;;;;;5073546;28;20097;-37
2023/11/19 06:23:15;;;;;;;23.00;4.93;;;12.40;99.90;;;;;;5083809;28;20750;-37
2023/11/19 06:25:40;;;;;;;25.23;5.18;;;12.30;99.90;;;;;;5071566;28;20081;-38
2023/11/19 06:28:06;;;;;;;29.23;5.75;;;12.30;99.90;;;;;;5084487;28;20028;-37
2023/11/19 06:30:32;;;;;;;29.05;5.68;;;12.30;99.90;;;;;;5070763;28;20044;-37
2023/11/19 06:32:58;;;;;;;23.35;5.22;;;12.30;99.90;;;;;;5083893;28;20020;-37
2023/11/19 06:35:35;;;;;;;29.63;5.55;;;12.30;99.90;;;;;;5072528;28;20036;-36
2023/11/19 06:38:02;;;;;;;35.40;6.38;;;12.30;99.90;;;;;;5043346;28;20064;-36
2023/11/19 06:40:29;;;;;;;27.98;5.00;;;12.20;99.90;;;;;;5068909;28;20069;-36
2023/11/19 06:42:55;;;;;;;29.30;6.07;;;12.20;99.90;;;;;;5066138;28;20496;-36
2023/11/19 06:45:20;;;;;;;31.30;6.00;;;12.20;99.90;;;;;;5070295;28;20024;-37
2023/11/19 06:47:46;;;;;;;27.63;5.85;;;12.10;99.90;;;;;;5068378;28;20111;-36
2023/11/19 06:50:12;;;;;;;24.15;4.75;;;12.20;99.90;;;;;;5080862;28;20430;-37
2023/11/19 06:52:38;;;;;;;28.38;4.85;;;12.20;99.90;;;;;;5064577;28;20043;-35
2023/11/19 06:55:04;;;;;;;23.15;4.88;;;12.10;99.90;;;;;;5083921;28;20028;-37
2023/11/19 06:57:32;;;;;;;26.40;5.20;;;12.20;99.90;;;;;;5084357;28;20490;-38
2023/11/19 06:59:58;;;;;;;28.50;6.03;;;12.20;99.90;;;;;;5083670;28;20111;-37
2023/11/19 07:02:24;;;;;;;33.80;6.00;;;12.20;99.90;;;;;;5084321;28;20023;-37
2023/11/19 07:04:50;;;;;;;28.58;5.60;;;12.10;99.90;;;;;;5084580;28;20558;-38
2023/11/19 07:07:16;;;;;;;34.60;5.80;;;12.10;99.90;;;;;;5082953;28;20750;-37
2023/11/19 07:09:42;;;;;;;22.05;4.82;;;12.10;99.90;;;;;;5084328;28;20100;-38
2023/11/19 07:12:08;;;;;;;23.23;4.50;;;12.10;99.90;;;;;;5083539;28;20150;-42
2023/11/19 07:14:34;;;;;;;27.52;5.28;;;12.20;99.90;;;;;;5083294;28;20032;-40
2023/11/19 07:17:00;;;;;;;24.52;4.97;;;12.20;99.90;;;;;;5083529;28;20028;-38
2023/11/19 07:19:26;;;;;;;23.50;4.22;;;12.20;99.90;;;;;;5083895;28;20028;-37
2023/11/19 07:21:53;;;;;;;23.30;4.57;;;12.30;99.90;;;;;;5082850;28;20142;-37
2023/11/19 07:24:19;;;;;;;22.23;4.63;;;12.30;99.90;;;;;;5083712;28;20020;-38
2023/11/19 07:26:47;;;;;;;23.77;4.00;;;12.30;99.90;;;;;;5084086;28;20073;-38
2023/11/19 07:29:16;;;;;;;17.70;3.90;;;12.30;99.90;;;;;;5082545;28;20064;-36
2023/11/19 07:31:44;;;;;;;22.63;4.65;;;12.30;99.90;;;;;;5083978;28;20017;-37
2023/11/19 07:34:13;;;;;;;20.77;5.20;;;12.40;99.90;;;;;;5082867;28;20024;-37
2023/11/19 07:36:39;;;;;;;21.52;4.53;;;12.30;99.90;;;;;;5082974;28;20833;-37
2023/11/19 07:39:05;;;;;;;29.08;5.20;;;12.30;99.90;;;;;;5082625;28;20024;-37
2023/11/19 07:41:34;;;;;;;23.73;4.60;;;12.30;99.90;;;;;;5079004;28;20051;-38
2023/11/19 07:44:03;;;;;;;35.33;6.00;;;12.30;99.90;;;;;;5081952;28;20024;-37
2023/11/19 07:46:32;;;;;;;18.77;4.30;;;12.30;99.90;;;;;;5081870;28;20138;-39
2023/11/19 07:48:57;;;;;;;24.48;5.20;;;12.30;99.90;;;;;;5081048;28;20809;-37
2023/11/19 07:51:23;;;;;;;25.17;5.72;;;12.30;99.90;;;;;;5082294;28;20028;-39
2023/11/19 07:53:49;;;;;;;21.23;4.82;;;12.40;99.90;;;;;;5082435;28;20475;-36
2023/11/19 07:56:15;;;;;;;21.58;5.15;;;12.40;99.90;;;;;;5081307;28;20028;-38
2023/11/19 07:58:40;;;;;;;17.30;4.15;;;12.50;99.90;;;;;;5082283;28;20503;-37
2023/11/19 08:01:06;;;;;;;28.90;6.70;;;12.50;99.90;;;;;;5082102;28;20546;-37
2023/11/19 08:03:34;;;;;;;22.30;4.47;;;12.50;99.90;;;;;;5079726;28;20127;-37
2023/11/19 08:06:01;;;;;;;25.67;6.15;;;12.50;99.90;;;;;;5081032;28;20056;-37
2023/11/19 08:08:29;;;;;;;19.88;4.72;;;12.60;99.90;;;;;;5080753;28;20051;-38
2023/11/19 08:10:56;;;;;;;25.85;4.50;;;12.60;99.90;;;;;;5080463;28;20040;-38
2023/11/19 08:13:25;;;;;;;20.92;4.43;;;12.70;99.90;;;;;;5079561;28;20050;-38
2023/11/19 08:15:51;;;;;;;18.65;4.28;;;12.80;99.90;;;;;;5082188;28;20081;-37
2023/11/19 08:18:18;;;;;;;28.40;4.68;;;12.80;99.90;;;;;;5080711;28;20019;-38
2023/11/19 08:20:44;;;;;;;27.13;5.30;;;12.80;99.90;;;;;;5081401;28;20135;-39
2023/11/19 08:23:10;;;;;;;29.25;5.32;;;12.80;99.90;;;;;;5081535;28;20107;-45
2023/11/19 08:25:35;;;;;;;26.63;5.18;;;12.80;99.90;;;;;;5080262;28;20072;-38
2023/11/19 08:28:02;;;;;;;27.30;5.32;;;12.80;99.90;;;;;;5082008;28;20035;-37
2023/11/19 08:30:29;;;;;;;26.15;4.80;;;12.80;99.90;;;;;;5080516;28;20028;-37
2023/11/19 08:32:54;;;;;;;21.05;4.72;;;12.80;99.90;;;;;;5081613;28;20027;-37
2023/11/19 08:35:20;;;;;;;26.60;5.35;;;12.90;99.90;;;;;;5081970;28;20059;-42
2023/11/19 08:37:46;;;;;;;30.73;5.03;;;12.90;99.90;;;;;;5081232;28;20089;-37
2023/11/19 08:40:14;;;;;;;24.55;4.95;;;12.90;99.90;;;;;;5081432;28;20070;-37
2023/11/19 08:42:40;;;;;;;26.17;5.82;;;12.90;99.90;;;;;;5082092;28;20028;-36
2023/11/19 08:45:09;;;;;;;21.63;4.63;;;12.90;99.90;;;;;;5079297;28;20036;-36
2023/11/19 08:47:35;;;;;;;17.98;4.72;;;13.00;99.90;;;;;;5081284;28;20049;-38
2023/11/19 08:50:01;;;;;;;31.67;5.32;;;13.00;99.90;;;;;;5079857;28;20071;-37
2023/11/19 08:52:30;;;;;;;28.73;5.00;;;12.90;99.90;;;;;;5079934;28;20653;-37
2023/11/19 08:54:56;;;;;;;21.73;4.47;;;13.00;99.90;;;;;;5080437;28;20631;-37
2023/11/19 08:57:21;;;;;;;26.10;5.25;;;13.00;99.90;;;;;;5080514;28;20024;-37
2023/11/19 08:59:47;;;;;;;18.63;4.03;;;13.00;99.90;;;;;;5079857;28;20370;-37
2023/11/19 09:02:12;;;;;;;18.27;4.22;;;13.00;99.90;;;;;;5080621;28;20062;-37
2023/11/19 09:04:38;;;;;;;19.35;4.10;;;13.10;99.90;;;;;;5080976;28;20821;-36
2023/11/19 09:07:04;;;;;;;22.88;4.18;;;13.10;99.90;;;;;;5080495;28;20036;-37
2023/11/19 09:09:30;;;;;;;18.30;4.10;;;13.10;99.90;;;;;;5080908;28;20044;-36
2023/11/19 09:11:55;;;;;;;19.27;4.10;;;13.20;99.90;;;;;;5080739;28;20032;-37
2023/11/19 09:14:25;;;;;;;20.13;4.05;;;13.20;99.90;;;;;;5079885;28;20459;-36
2023/11/19 09:16:51;;;;;;;20.98;4.40;;;13.20;99.90;;;;;;5081111;28;20035;-37
2023/11/19 09:19:17;;;;;;;21.25;4.07;;;13.20;99.90;;;;;;5062282;28;20024;-37
2023/11/19 09:21:43;;;;;;;23.27;4.35;;;13.20;99.90;;;;;;5076883;28;20044;-37
2023/11/19 09:24:09;;;;;;;18.45;3.95;;;13.30;99.90;;;;;;5081412;28;20046;-38
2023/11/19 09:26:36;;;;;;;22.25;4.10;;;13.30;99.90;;;;;;5079938;28;20734;-38
2023/11/19 09:29:02;;;;;;;20.60;5.10;;;13.30;99.90;;;;;;5080408;28;20040;-37
2023/11/19 09:31:27;;;;;;;19.55;4.15;;;13.30;99.90;;;;;;5081043;28;20028;-37
2023/11/19 09:33:53;;;;;;;19.25;4.57;;;13.30;99.90;;;;;;5080042;28;20074;-37
2023/11/19 09:36:19;;;;;;;32.40;5.78;;;13.30;99.90;;;;;;5080114;28;20028;-36
2023/11/19 09:38:45;;;;;;;28.05;5.45;;;13.40;99.90;;;;;;5081102;28;20089;-37
2023/11/19 09:41:14;;;;;;;22.17;4.68;;;13.40;99.90;;;;;;5079579;28;20016;-37
2023/11/19 09:43:41;;;;;;;16.55;3.80;;;13.40;99.90;;;;;;5081158;28;20034;-38
2023/11/19 09:46:11;;;;;;;23.75;4.05;;;13.40;99.90;;;;;;5080771;28;20020;-37
2023/11/19 09:48:38;;;;;;;21.20;4.68;;;13.40;99.90;;;;;;5080285;28;20052;-37
2023/11/19 09:51:08;;;;;;;22.92;4.00;;;13.40;99.90;;;;;;5080370;28;20043;-37
2023/11/19 09:53:35;;;;;;;21.83;4.53;;;13.40;99.90;;;;;;5080451;28;20049;-37
2023/11/19 09:56:05;;;;;;;18.02;3.70;;;13.40;99.90;;;;;;5079348;28;20020;-36
2023/11/19 09:58:32;;;;;;;18.75;4.50;;;13.50;99.90;;;;;;5080505;28;20059;-38
2023/11/19 10:00:59;;;;;;;25.50;4.43;;;13.50;99.90;;;;;;5080306;28;20619;-38
2023/11/19 10:03:26;;;;;;;26.50;5.10;;;13.60;99.90;;;;;;5080108;28;20036;-38
2023/11/19 10:05:54;;;;;;;24.13;4.20;;;13.60;99.90;;;;;;5081072;28;20031;-37
2023/11/19 10:08:23;;;;;;;27.02;5.65;;;13.60;99.90;;;;;;5080701;28;20115;-37
2023/11/19 10:10:49;;;;;;;21.33;4.65;;;13.60;99.90;;;;;;5080428;28;20824;-37
2023/11/19 10:13:14;;;;;;;19.95;4.30;;;13.70;99.90;;;;;;5079703;28;20119;-36
2023/11/19 10:15:41;;;;;;;22.33;4.70;;;13.70;99.90;;;;;;5080689;28;20480;-37
2023/11/19 10:18:06;;;;;;;26.50;5.15;;;13.70;99.90;;;;;;5079819;28;20033;-38
2023/11/19 10:20:36;;;;;;;28.20;5.65;;;13.70;99.90;;;;;;5080455;28;20030;-38
2023/11/19 10:23:03;;;;;;;24.17;4.60;;;13.70;99.90;;;;;;5079439;28;20546;-39
2023/11/19 10:25:29;;;;;;;24.27;4.47;;;13.70;99.90;;;;;;5080924;28;20097;-41
2023/11/19 10:27:56;;;;;;;23.83;4.72;;;13.70;99.90;;;;;;5080029;28;20024;-37
2023/11/19 10:30:23;;;;;;;19.90;4.40;;;13.70;99.90;;;;;;5079928;28;20036;-38
2023/11/19 10:33:08;;;;;;;21.92;4.78;;;13.70;99.90;;;;;;5080843;28;20213;-40
2023/11/19 10:35:54;;;;;;;21.55;4.20;;;13.70;99.90;;;;;;5080570;28;20047;-38
2023/11/19 10:38:22;;;;;;;18.02;4.32;;;13.70;99.90;;;;;;5080265;28;20020;-38
2023/11/19 10:40:48;;;;;;;14.25;3.33;;;13.70;99.90;;;;;;5080813;28;20649;-39
2023/11/19 10:43:14;;;;;;;20.80;4.45;;;13.70;99.90;;;;;;5079780;28;20028;-38
2023/11/19 10:45:40;;;;;;;18.20;3.90;;;13.70;99.90;;;;;;5079608;28;20715;-39
2023/11/19 10:48:06;;;;;;;20.67;4.20;;;13.70;99.90;;;;;;5081189;28;20107;-39
2023/11/19 10:50:36;;;;;;;23.73;4.28;;;13.80;99.90;;;;;;5067016;28;20571;-40
2023/11/19 10:53:03;;;;;;;18.83;4.47;;;13.80;99.90;;;;;;5057469;28;20039;-37
2023/11/19 10:55:34;;;;;;;20.98;4.05;;;13.80;99.90;;;;;;5074517;28;20055;-38
2023/11/19 10:58:05;;;;;;;20.65;4.53;;;13.80;99.90;;;;;;5081760;28;20019;-37
2023/11/19 11:00:38;;;;;;;21.35;4.05;;;13.90;99.90;;;;;;5062316;28;20024;-38
2023/11/19 11:03:14;;;;;;;22.30;4.68;;;14.00;99.90;;;;;;5067628;28;20020;-38
2023/11/19 11:05:41;;;;;;;23.85;5.07;;;13.90;99.90;;;;;;5049503;28;20148;-40
2023/11/19 11:08:08;;;;;;;25.35;4.70;;;13.90;99.90;;;;;;5060016;28;20036;-38
2023/11/19 11:10:45;;;;;;;23.55;4.78;;;13.90;99.90;;;;;;5071118;28;20028;-38
2023/11/19 11:13:14;;;;;;;25.20;5.55;;;13.90;99.90;;;;;;5063674;28;20681;-38
2023/11/19 11:15:42;;;;;;;20.30;4.60;;;14.00;99.90;;;;;;5063646;28;20098;-38
2023/11/19 11:18:09;;;;;;;22.40;4.25;;;14.00;99.90;;;;;;5051266;28;20485;-37
2023/11/19 11:20:35;;;;;;;22.50;4.65;;;14.10;99.90;;;;;;5068054;28;20065;-40
2023/11/19 11:23:10;;;;;;;20.65;4.45;;;14.20;99.90;;;;;;5083423;28;20024;-40
2023/11/19 11:25:58;;;;;;;20.92;4.15;;;14.20;99.90;;;;;;5066926;28;20028;-38
2023/11/19 11:28:50;;;;;;;24.67;4.80;;;14.20;99.90;;;;;;5062496;28;20032;-39
2023/11/19 11:31:53;;;;;;;18.92;3.70;;;14.20;99.90;;;;;;5065979;28;20070;-39
2023/11/19 11:34:22;;;;;;;17.92;4.30;;;14.20;99.90;;;;;;5062768;28;20043;-38
2023/11/19 11:37:02;;;;;;;22.80;4.55;;;14.30;99.90;;;;;;5073394;28;20028;-38
2023/11/19 11:39:29;;;;;;;19.95;4.68;;;14.30;99.90;;;;;;5063814;28;20106;-38
2023/11/19 11:42:30;;;;;;;23.23;5.30;;;14.30;99.90;;;;;;5058867;28;20025;-39
2023/11/19 11:45:04;;;;;;;27.10;5.15;;;14.30;99.90;;;;;;5052845;28;20093;-37
2023/11/19 11:47:45;;;;;;;19.83;4.45;;;14.30;99.90;;;;;;5061254;28;20032;-40
2023/11/19 11:50:18;;;;;;;23.55;5.57;;;14.30;99.90;;;;;;5066732;28;20059;-38
2023/11/19 11:52:57;;;;;;;19.45;4.30;;;14.30;99.90;;;;;;5081642;28;20144;-38
2023/11/19 11:55:26;;;;;;;19.63;4.47;;;14.30;99.90;;;;;;5079237;28;20024;-38
2023/11/19 11:57:52;;;;;;;14.45;3.50;;;14.40;99.90;;;;;;5082880;28;20616;-38
2023/11/19 12:00:29;;;;;;;21.40;4.25;;;14.40;99.90;;;;;;5080619;28;20016;-38
2023/11/19 12:03:02;;;;;;;20.65;4.97;;;14.50;99.90;;;;;;5076559;28;20028;-39
2023/11/19 12:05:29;;;;;;;23.48;4.38;;;14.40;99.90;;;;;;5075961;28;20020;-37
2023/11/19 12:07:55;;;;;;;21.13;4.22;;;14.40;99.90;;;;;;5081273;28;20036;-38
2023/11/19 12:10:22;;;;;;;14.38;3.70;;;14.40;99.90;;;;;;5074025;28;20478;-39
2023/11/19 12:12:48;;;;;;;22.40;4.72;;;14.40;99.90;;;;;;5081234;28;20032;-39
2023/11/19 12:15:19;;;;;;;17.33;3.38;;;14.50;99.90;;;;;;5080334;28;20603;-40
2023/11/19 12:17:51;;;;;;;17.92;3.47;;;14.60;99.90;;;;;;5081580;28;20031;-38
2023/11/19 12:20:21;;;;;;;13.30;3.45;;;14.60;99.90;;;;;;5081344;28;20035;-39
2023/11/19 12:22:49;;;;;;;19.85;3.55;;;14.60;99.90;;;;;;5078433;28;20024;-39
2023/11/19 12:25:20;;;;;;;15.80;3.60;;;14.60;99.90;;;;;;5081578;28;20032;-40
2023/11/19 12:27:47;;;;;;;18.13;3.45;;;14.60;99.90;;;;;;5081385;28;20027;-38
2023/11/19 12:30:21;;;;;;;19.02;3.88;;;14.60;99.90;;;;;;5080841;28;20044;-39
2023/11/19 12:32:46;;;;;;;13.27;3.05;;;14.60;99.90;;;;;;5082269;28;20055;-38
2023/11/19 12:35:12;;;;;;;18.33;3.88;;;14.60;99.90;;;;;;5081134;28;20112;-37
2023/11/19 12:37:49;;;;;;;17.55;3.88;;;14.70;99.90;;;;;;5080957;28;20483;-38
2023/11/19 12:40:24;;;;;;;15.23;3.20;;;14.70;99.90;;;;;;5082168;28;20124;-38